sensor_id;sensor_type;location;lat;lon;timestamp;pressure;altitude;pressure_sealevel;temperature;humidity
63883;BME280;50047;50.596;30.466;2022-07-15T00:00:05;98885.21;;;22.98;51.05
63883;BME280;50047;50.596;30.466;2022-07-15T00:02:33;98887.27;;;22.90;51.17
63883;BME280;50047;50.596;30.466;2022-07-15T00:05:00;98886.49;;;23.20;51.61
63883;BME280;50047;50.596;30.466;2022-07-15T00:07:28;98885.52;;;23.64;50.94
63883;BME280;50047;50.596;30.466;2022-07-15T00:09:55;98880.62;;;23.90;50.05
63883;BME280;50047;50.596;30.466;2022-07-15T00:12:46;98879.91;;;23.90;49.59
63883;BME280;50047;50.596;30.466;2022-07-15T00:15:13;98881.40;;;23.74;49.79
63883;BME280;50047;50.596;30.466;2022-07-15T00:17:41;98885.36;;;23.56;49.95
63883;BME280;50047;50.596;30.466;2022-07-15T00:20:10;98888.85;;;23.47;50.01
63883;BME280;50047;50.596;30.466;2022-07-15T00:22:38;98886.69;;;23.39;49.90
63883;BME280;50047;50.596;30.466;2022-07-15T00:25:06;98884.86;;;23.18;50.43
63883;BME280;50047;50.596;30.466;2022-07-15T00:27:33;98880.95;;;23.05;50.54
63883;BME280;50047;50.596;30.466;2022-07-15T00:30:01;98880.55;;;23.00;50.86
63883;BME280;50047;50.596;30.466;2022-07-15T00:32:28;98879.32;;;22.90;51.20
63883;BME280;50047;50.596;30.466;2022-07-15T00:34:55;98877.94;;;23.18;51.61
63883;BME280;50047;50.596;30.466;2022-07-15T00:37:23;98878.79;;;23.67;50.80
63883;BME280;50047;50.596;30.466;2022-07-15T00:39:50;98869.17;;;23.97;50.12
63883;BME280;50047;50.596;30.466;2022-07-15T00:42:17;98865.67;;;24.10;49.38
63883;BME280;50047;50.596;30.466;2022-07-15T00:45:03;98857.83;;;24.06;49.05
63883;BME280;50047;50.596;30.466;2022-07-15T00:47:31;98861.63;;;23.98;49.02
63883;BME280;50047;50.596;30.466;2022-07-15T00:49:58;98856.29;;;23.93;48.91
63883;BME280;50047;50.596;30.466;2022-07-15T00:52:25;98853.62;;;23.90;48.70
63883;BME280;50047;50.596;30.466;2022-07-15T00:54:58;98852.30;;;23.88;48.79
63883;BME280;50047;50.596;30.466;2022-07-15T00:57:28;98852.71;;;23.86;48.75
63883;BME280;50047;50.596;30.466;2022-07-15T00:59:59;98849.67;;;23.83;48.85
63883;BME280;50047;50.596;30.466;2022-07-15T01:02:30;98848.23;;;23.83;48.72
63883;BME280;50047;50.596;30.466;2022-07-15T01:04:59;98848.04;;;23.79;48.81
63883;BME280;50047;50.596;30.466;2022-07-15T01:07:27;98850.20;;;23.69;49.14
63883;BME280;50047;50.596;30.466;2022-07-15T01:09:55;98850.39;;;23.96;50.11
63883;BME280;50047;50.596;30.466;2022-07-15T01:12:22;98851.23;;;24.43;49.60
63883;BME280;50047;50.596;30.466;2022-07-15T01:14:50;98851.49;;;24.67;48.71
63883;BME280;50047;50.596;30.466;2022-07-15T01:17:18;98853.02;;;24.69;48.25
63883;BME280;50047;50.596;30.466;2022-07-15T01:19:46;98857.06;;;24.63;48.01
63883;BME280;50047;50.596;30.466;2022-07-15T01:22:14;98855.77;;;24.51;47.95
63883;BME280;50047;50.596;30.466;2022-07-15T01:24:41;98856.66;;;24.34;48.12
63883;BME280;50047;50.596;30.466;2022-07-15T01:27:21;98858.75;;;24.18;48.24
63883;BME280;50047;50.596;30.466;2022-07-15T01:29:49;98856.19;;;24.08;48.31
63883;BME280;50047;50.596;30.466;2022-07-15T01:32:16;98853.80;;;24.00;48.38
63883;BME280;50047;50.596;30.466;2022-07-15T01:34:45;98850.13;;;23.81;48.71
63883;BME280;50047;50.596;30.466;2022-07-15T01:37:16;98848.42;;;23.64;49.21
63883;BME280;50047;50.596;30.466;2022-07-15T01:39:49;98855.14;;;23.50;49.44
63883;BME280;50047;50.596;30.466;2022-07-15T01:42:16;98856.91;;;23.41;49.53
63883;BME280;50047;50.596;30.466;2022-07-15T01:44:44;98858.57;;;23.26;50.00
63883;BME280;50047;50.596;30.466;2022-07-15T01:47:11;98860.63;;;23.47;51.00
63883;BME280;50047;50.596;30.466;2022-07-15T01:49:39;98856.24;;;23.89;50.40
63883;BME280;50047;50.596;30.466;2022-07-15T01:52:09;98861.60;;;24.11;49.79
63883;BME280;50047;50.596;30.466;2022-07-15T01:54:38;98860.40;;;24.19;49.34
63883;BME280;50047;50.596;30.466;2022-07-15T01:57:06;98857.67;;;24.16;49.03
63883;BME280;50047;50.596;30.466;2022-07-15T01:59:45;98858.11;;;24.10;48.86
63883;BME280;50047;50.596;30.466;2022-07-15T02:02:17;98856.86;;;24.10;48.52
63883;BME280;50047;50.596;30.466;2022-07-15T02:04:45;98858.17;;;23.95;48.73
63883;BME280;50047;50.596;30.466;2022-07-15T02:07:12;98852.92;;;23.82;48.93
63883;BME280;50047;50.596;30.466;2022-07-15T02:09:39;98853.48;;;23.74;48.96
63883;BME280;50047;50.596;30.466;2022-07-15T02:12:07;98853.80;;;23.72;49.12
63883;BME280;50047;50.596;30.466;2022-07-15T02:14:39;98850.91;;;23.72;49.10
63883;BME280;50047;50.596;30.466;2022-07-15T02:17:07;98849.14;;;23.75;48.93
63883;BME280;50047;50.596;30.466;2022-07-15T02:19:39;98844.23;;;23.75;49.20
63883;BME280;50047;50.596;30.466;2022-07-15T02:22:06;98844.67;;;24.12;49.93
63883;BME280;50047;50.596;30.466;2022-07-15T02:24:33;98841.91;;;24.82;49.02
63883;BME280;50047;50.596;30.466;2022-07-15T02:27:01;98845.21;;;25.27;47.79
63883;BME280;50047;50.596;30.466;2022-07-15T02:29:28;98842.19;;;25.34;47.47
63883;BME280;50047;50.596;30.466;2022-07-15T02:31:55;98841.84;;;25.24;47.29
63883;BME280;50047;50.596;30.466;2022-07-15T02:34:23;98833.36;;;25.05;47.25
63883;BME280;50047;50.596;30.466;2022-07-15T02:36:50;98831.40;;;24.85;47.37
63883;BME280;50047;50.596;30.466;2022-07-15T02:39:19;98834.16;;;24.65;47.58
63883;BME280;50047;50.596;30.466;2022-07-15T02:41:46;98829.15;;;24.46;47.82
63883;BME280;50047;50.596;30.466;2022-07-15T02:44:13;98828.81;;;24.32;48.11
63883;BME280;50047;50.596;30.466;2022-07-15T02:46:44;98826.41;;;24.20;48.29
63883;BME280;50047;50.596;30.466;2022-07-15T02:49:14;98825.38;;;24.12;48.52
63883;BME280;50047;50.596;30.466;2022-07-15T02:51:42;98824.47;;;24.05;48.65
63883;BME280;50047;50.596;30.466;2022-07-15T02:54:09;98824.64;;;24.03;48.78
63883;BME280;50047;50.596;30.466;2022-07-15T02:56:38;98825.34;;;23.98;48.94
63883;BME280;50047;50.596;30.466;2022-07-15T02:59:06;98826.43;;;23.87;49.21
63883;BME280;50047;50.596;30.466;2022-07-15T03:01:33;98826.72;;;24.12;50.15
63883;BME280;50047;50.596;30.466;2022-07-15T03:04:00;98823.51;;;24.59;49.75
63883;BME280;50047;50.596;30.466;2022-07-15T03:06:28;98823.99;;;24.80;49.00
63883;BME280;50047;50.596;30.466;2022-07-15T03:08:55;98822.60;;;24.81;48.65
63883;BME280;50047;50.596;30.466;2022-07-15T03:11:23;98829.28;;;24.71;48.58
63883;BME280;50047;50.596;30.466;2022-07-15T03:13:50;98833.52;;;24.59;48.65
63883;BME280;50047;50.596;30.466;2022-07-15T03:16:18;98832.02;;;24.37;48.92
63883;BME280;50047;50.596;30.466;2022-07-15T03:18:48;98835.73;;;24.21;49.21
63883;BME280;50047;50.596;30.466;2022-07-15T03:21:15;98837.09;;;24.10;49.12
63883;BME280;50047;50.596;30.466;2022-07-15T03:23:45;98837.81;;;23.97;49.41
63883;BME280;50047;50.596;30.466;2022-07-15T03:26:13;98836.75;;;23.90;49.45
63883;BME280;50047;50.596;30.466;2022-07-15T03:28:40;98840.18;;;23.85;49.61
63883;BME280;50047;50.596;30.466;2022-07-15T03:31:07;98841.71;;;23.76;49.94
63883;BME280;50047;50.596;30.466;2022-07-15T03:33:35;98845.40;;;24.01;50.95
63883;BME280;50047;50.596;30.466;2022-07-15T03:36:03;98856.14;;;24.40;50.53
63883;BME280;50047;50.596;30.466;2022-07-15T03:38:32;98877.56;;;24.53;49.91
63883;BME280;50047;50.596;30.466;2022-07-15T03:41:00;98903.48;;;24.45;49.92
63883;BME280;50047;50.596;30.466;2022-07-15T03:43:27;98908.09;;;24.23;50.62
63883;BME280;50047;50.596;30.466;2022-07-15T03:45:57;98911.60;;;23.92;51.36
63883;BME280;50047;50.596;30.466;2022-07-15T03:48:25;98914.08;;;23.68;52.20
63883;BME280;50047;50.596;30.466;2022-07-15T03:50:53;98915.20;;;23.42;53.17
63883;BME280;50047;50.596;30.466;2022-07-15T03:53:20;98908.30;;;23.19;54.15
63883;BME280;50047;50.596;30.466;2022-07-15T03:55:48;98910.16;;;23.34;55.32
63883;BME280;50047;50.596;30.466;2022-07-15T03:58:17;98901.52;;;23.70;54.60
63883;BME280;50047;50.596;30.466;2022-07-15T04:00:44;98894.44;;;23.83;54.18
63883;BME280;50047;50.596;30.466;2022-07-15T04:03:12;98883.63;;;23.73;54.28
63883;BME280;50047;50.596;30.466;2022-07-15T04:05:39;98880.23;;;23.64;54.35
63883;BME280;50047;50.596;30.466;2022-07-15T04:08:06;98861.96;;;23.54;53.89
63883;BME280;50047;50.596;30.466;2022-07-15T04:10:34;98856.30;;;23.48;53.36
63883;BME280;50047;50.596;30.466;2022-07-15T04:13:01;98854.14;;;23.32;54.58
63883;BME280;50047;50.596;30.466;2022-07-15T04:15:29;98848.00;;;23.47;55.90
63883;BME280;50047;50.596;30.466;2022-07-15T04:17:58;98829.84;;;23.90;55.66
63883;BME280;50047;50.596;30.466;2022-07-15T04:20:25;98824.77;;;24.17;55.08
63883;BME280;50047;50.596;30.466;2022-07-15T04:22:54;98818.39;;;24.28;54.48
63883;BME280;50047;50.596;30.466;2022-07-15T04:25:21;98816.74;;;24.28;54.17
63883;BME280;50047;50.596;30.466;2022-07-15T04:27:51;98806.73;;;24.26;53.63
63883;BME280;50047;50.596;30.466;2022-07-15T04:30:22;98806.05;;;24.13;53.52
63883;BME280;50047;50.596;30.466;2022-07-15T04:32:49;98804.49;;;23.95;54.14
63883;BME280;50047;50.596;30.466;2022-07-15T04:35:18;98797.52;;;24.20;54.81
63883;BME280;50047;50.596;30.466;2022-07-15T04:37:51;98800.89;;;24.63;54.39
63883;BME280;50047;50.596;30.466;2022-07-15T04:40:18;98800.02;;;24.84;53.72
63883;BME280;50047;50.596;30.466;2022-07-15T04:42:46;98799.88;;;24.76;53.80
63883;BME280;50047;50.596;30.466;2022-07-15T04:45:14;98800.02;;;24.75;53.58
63883;BME280;50047;50.596;30.466;2022-07-15T04:47:41;98800.56;;;24.72;53.09
63883;BME280;50047;50.596;30.466;2022-07-15T04:50:11;98808.45;;;24.62;52.42
63883;BME280;50047;50.596;30.466;2022-07-15T04:52:58;98811.24;;;24.59;52.24
63883;BME280;50047;50.596;30.466;2022-07-15T04:55:26;98819.50;;;24.45;52.40
63883;BME280;50047;50.596;30.466;2022-07-15T04:58:00;98816.15;;;24.69;54.54
63883;BME280;50047;50.596;30.466;2022-07-15T05:00:28;98809.84;;;25.03;54.27
63883;BME280;50047;50.596;30.466;2022-07-15T05:02:55;98808.52;;;25.27;53.43
63883;BME280;50047;50.596;30.466;2022-07-15T05:05:23;98798.73;;;25.42;52.44
63883;BME280;50047;50.596;30.466;2022-07-15T05:07:50;98796.52;;;25.40;52.34
63883;BME280;50047;50.596;30.466;2022-07-15T05:10:18;98789.59;;;25.36;52.20
63883;BME280;50047;50.596;30.466;2022-07-15T05:12:51;98790.95;;;25.28;52.69
63883;BME280;50047;50.596;30.466;2022-07-15T05:15:18;98789.08;;;25.11;53.16
63883;BME280;50047;50.596;30.466;2022-07-15T05:17:46;98774.70;;;25.47;53.66
63883;BME280;50047;50.596;30.466;2022-07-15T05:20:18;98766.22;;;25.98;53.15
63883;BME280;50047;50.596;30.466;2022-07-15T05:22:46;98769.96;;;26.37;51.90
63883;BME280;50047;50.596;30.466;2022-07-15T05:25:14;98769.16;;;26.50;51.09
63883;BME280;50047;50.596;30.466;2022-07-15T05:27:41;98765.18;;;26.48;50.81
63883;BME280;50047;50.596;30.466;2022-07-15T05:30:09;98763.84;;;26.43;50.56
63883;BME280;50047;50.596;30.466;2022-07-15T05:32:36;98766.02;;;26.35;50.71
63883;BME280;50047;50.596;30.466;2022-07-15T05:35:07;98764.89;;;26.37;50.78
63883;BME280;50047;50.596;30.466;2022-07-15T05:37:38;98764.80;;;26.80;50.62
63883;BME280;50047;50.596;30.466;2022-07-15T05:40:07;98760.77;;;29.11;47.34
63883;BME280;50047;50.596;30.466;2022-07-15T05:42:40;98759.13;;;30.42;44.58
63883;BME280;50047;50.596;30.466;2022-07-15T05:45:08;98755.89;;;30.43;44.17
63883;BME280;50047;50.596;30.466;2022-07-15T05:47:39;98749.94;;;30.03;44.36
63883;BME280;50047;50.596;30.466;2022-07-15T05:50:07;98740.58;;;29.60;45.02
63883;BME280;50047;50.596;30.466;2022-07-15T05:52:35;98736.05;;;29.19;45.19
63883;BME280;50047;50.596;30.466;2022-07-15T05:55:04;98733.09;;;28.74;45.99
63883;BME280;50047;50.596;30.466;2022-07-15T05:57:32;98732.09;;;28.49;46.53
63883;BME280;50047;50.596;30.466;2022-07-15T06:00:00;98728.11;;;28.66;46.35
63883;BME280;50047;50.596;30.466;2022-07-15T06:02:39;98727.04;;;30.23;43.83
63883;BME280;50047;50.596;30.466;2022-07-15T06:05:11;98723.19;;;31.68;41.26
63883;BME280;50047;50.596;30.466;2022-07-15T06:07:42;98720.32;;;32.76;39.63
63883;BME280;50047;50.596;30.466;2022-07-15T06:10:09;98716.14;;;33.10;38.72
63883;BME280;50047;50.596;30.466;2022-07-15T06:12:37;98710.86;;;34.62;36.96
63883;BME280;50047;50.596;30.466;2022-07-15T06:15:06;98711.52;;;35.01;35.86
63883;BME280;50047;50.596;30.466;2022-07-15T06:17:34;98705.63;;;34.12;36.98
63883;BME280;50047;50.596;30.466;2022-07-15T06:20:03;98702.13;;;33.32;37.94
63883;BME280;50047;50.596;30.466;2022-07-15T06:22:38;98702.83;;;33.03;38.23
63883;BME280;50047;50.596;30.466;2022-07-15T06:25:05;98702.66;;;32.80;38.50
63883;BME280;50047;50.596;30.466;2022-07-15T06:27:32;98702.36;;;32.61;39.04
63883;BME280;50047;50.596;30.466;2022-07-15T06:30:01;98702.36;;;32.29;39.32
63883;BME280;50047;50.596;30.466;2022-07-15T06:32:28;98704.64;;;31.78;39.69
63883;BME280;50047;50.596;30.466;2022-07-15T06:34:55;98703.80;;;31.20;40.81
63883;BME280;50047;50.596;30.466;2022-07-15T06:37:22;98701.29;;;30.72;41.64
63883;BME280;50047;50.596;30.466;2022-07-15T06:39:50;98693.42;;;30.32;42.63
63883;BME280;50047;50.596;30.466;2022-07-15T06:42:17;98685.12;;;29.94;43.04
63883;BME280;50047;50.596;30.466;2022-07-15T06:44:55;98669.06;;;29.68;43.71
63883;BME280;50047;50.596;30.466;2022-07-15T06:47:23;98671.79;;;29.38;44.33
63883;BME280;50047;50.596;30.466;2022-07-15T06:49:50;98676.69;;;29.25;44.57
63883;BME280;50047;50.596;30.466;2022-07-15T06:52:18;98681.10;;;29.25;44.73
63883;BME280;50047;50.596;30.466;2022-07-15T06:54:45;98679.29;;;29.25;44.74
63883;BME280;50047;50.596;30.466;2022-07-15T06:57:13;98680.52;;;29.22;44.83
63883;BME280;50047;50.596;30.466;2022-07-15T06:59:46;98681.65;;;29.24;44.95
63883;BME280;50047;50.596;30.466;2022-07-15T07:02:13;98681.70;;;29.30;45.03
63883;BME280;50047;50.596;30.466;2022-07-15T07:04:41;98680.05;;;29.30;45.14
63883;BME280;50047;50.596;30.466;2022-07-15T07:07:11;98674.02;;;29.27;45.13
63883;BME280;50047;50.596;30.466;2022-07-15T07:09:38;98672.66;;;29.65;44.36
63883;BME280;50047;50.596;30.466;2022-07-15T07:12:06;98673.63;;;30.57;42.81
63883;BME280;50047;50.596;30.466;2022-07-15T07:14:33;98679.77;;;30.83;42.04
63883;BME280;50047;50.596;30.466;2022-07-15T07:17:01;98678.07;;;31.14;41.45
63883;BME280;50047;50.596;30.466;2022-07-15T07:19:28;98674.98;;;31.28;41.32
63883;BME280;50047;50.596;30.466;2022-07-15T07:21:56;98674.60;;;31.10;41.29
63883;BME280;50047;50.596;30.466;2022-07-15T07:24:24;98676.74;;;31.23;41.06
63883;BME280;50047;50.596;30.466;2022-07-15T07:26:51;98685.39;;;31.54;40.76
63883;BME280;50047;50.596;30.466;2022-07-15T07:29:18;98719.17;;;31.81;40.37
63883;BME280;50047;50.596;30.466;2022-07-15T07:31:50;98749.90;;;31.88;40.51
63883;BME280;50047;50.596;30.466;2022-07-15T07:34:18;98761.27;;;31.84;40.77
63883;BME280;50047;50.596;30.466;2022-07-15T07:36:46;98757.65;;;31.80;40.82
63883;BME280;50047;50.596;30.466;2022-07-15T07:39:14;98755.77;;;31.81;40.99
63883;BME280;50047;50.596;30.466;2022-07-15T07:41:41;98754.50;;;31.78;40.95
63883;BME280;50047;50.596;30.466;2022-07-15T07:44:09;98752.84;;;31.65;41.22
63883;BME280;50047;50.596;30.466;2022-07-15T07:46:36;98745.10;;;31.45;41.70
63883;BME280;50047;50.596;30.466;2022-07-15T07:49:03;98747.79;;;31.34;41.85
63883;BME280;50047;50.596;30.466;2022-07-15T07:51:51;98752.60;;;31.42;41.92
63883;BME280;50047;50.596;30.466;2022-07-15T07:54:19;98757.96;;;31.65;41.44
63883;BME280;50047;50.596;30.466;2022-07-15T07:56:46;98764.34;;;31.93;41.18
63883;BME280;50047;50.596;30.466;2022-07-15T07:59:13;98762.46;;;32.24;40.81
63883;BME280;50047;50.596;30.466;2022-07-15T08:01:41;98765.08;;;32.20;40.76
63883;BME280;50047;50.596;30.466;2022-07-15T08:04:08;98765.72;;;32.22;40.84
63883;BME280;50047;50.596;30.466;2022-07-15T08:06:35;98776.45;;;32.24;40.97
63883;BME280;50047;50.596;30.466;2022-07-15T08:09:05;98780.96;;;32.22;40.83
63883;BME280;50047;50.596;30.466;2022-07-15T08:11:33;98779.55;;;32.16;40.59
63883;BME280;50047;50.596;30.466;2022-07-15T08:14:00;98782.46;;;32.17;40.75
63883;BME280;50047;50.596;30.466;2022-07-15T08:16:27;98787.94;;;32.12;40.33
63883;BME280;50047;50.596;30.466;2022-07-15T08:18:55;98791.57;;;32.14;40.03
63883;BME280;50047;50.596;30.466;2022-07-15T08:21:22;98791.09;;;32.17;40.07
63883;BME280;50047;50.596;30.466;2022-07-15T08:23:50;98789.30;;;32.00;40.40
63883;BME280;50047;50.596;30.466;2022-07-15T08:26:17;98787.20;;;31.81;40.61
63883;BME280;50047;50.596;30.466;2022-07-15T08:28:51;98784.04;;;31.57;40.71
63883;BME280;50047;50.596;30.466;2022-07-15T08:31:35;98787.27;;;31.38;41.10
63883;BME280;50047;50.596;30.466;2022-07-15T08:34:06;98792.38;;;31.24;41.10
63883;BME280;50047;50.596;30.466;2022-07-15T08:36:35;98794.67;;;31.31;40.94
63883;BME280;50047;50.596;30.466;2022-07-15T08:39:02;98787.82;;;31.49;40.75
63883;BME280;50047;50.596;30.466;2022-07-15T08:41:34;98780.55;;;31.62;40.57
63883;BME280;50047;50.596;30.466;2022-07-15T08:44:02;98789.49;;;31.69;40.72
63883;BME280;50047;50.596;30.466;2022-07-15T08:46:32;98801.95;;;31.48;40.99
63883;BME280;50047;50.596;30.466;2022-07-15T08:49:08;98810.55;;;31.30;41.35
63883;BME280;50047;50.596;30.466;2022-07-15T08:51:43;98803.12;;;31.21;41.44
63883;BME280;50047;50.596;30.466;2022-07-15T08:54:11;98794.33;;;31.11;41.49
63883;BME280;50047;50.596;30.466;2022-07-15T08:56:39;98790.16;;;30.96;41.58
63883;BME280;50047;50.596;30.466;2022-07-15T08:59:07;98783.60;;;30.88;41.74
63883;BME280;50047;50.596;30.466;2022-07-15T09:01:41;98780.42;;;30.82;41.42
63883;BME280;50047;50.596;30.466;2022-07-15T09:04:09;98774.34;;;30.79;41.45
63883;BME280;50047;50.596;30.466;2022-07-15T09:06:42;98774.52;;;30.85;41.21
63883;BME280;50047;50.596;30.466;2022-07-15T09:09:32;98779.74;;;30.91;41.20
63883;BME280;50047;50.596;30.466;2022-07-15T09:12:09;98786.03;;;30.83;41.32
63883;BME280;50047;50.596;30.466;2022-07-15T09:14:43;98788.20;;;30.70;41.65
63883;BME280;50047;50.596;30.466;2022-07-15T09:20:01;98791.09;;;30.33;42.27
63883;BME280;50047;50.596;30.466;2022-07-15T09:25:18;98807.84;;;29.81;43.48
63883;BME280;50047;50.596;30.466;2022-07-15T09:27:48;98816.36;;;29.45;43.75
63883;BME280;50047;50.596;30.466;2022-07-15T09:33:10;98829.38;;;29.04;44.73
63883;BME280;50047;50.596;30.466;2022-07-15T09:41:02;98832.20;;;28.14;46.13
63883;BME280;50047;50.596;30.466;2022-07-15T09:43:29;98844.70;;;27.85;46.61
63883;BME280;50047;50.596;30.466;2022-07-15T09:46:00;98842.17;;;27.61;47.03
63883;BME280;50047;50.596;30.466;2022-07-15T09:48:29;98847.52;;;27.44;47.28
63883;BME280;50047;50.596;30.466;2022-07-15T09:51:00;98850.61;;;27.25;47.58
63883;BME280;50047;50.596;30.466;2022-07-15T09:53:27;98851.73;;;27.02;48.24
63883;BME280;50047;50.596;30.466;2022-07-15T09:55:55;98858.73;;;26.80;49.09
63883;BME280;50047;50.596;30.466;2022-07-15T09:58:22;98858.66;;;26.41;50.76
63883;BME280;50047;50.596;30.466;2022-07-15T10:00:51;98861.77;;;26.03;52.25
63883;BME280;50047;50.596;30.466;2022-07-15T10:03:20;98871.79;;;26.25;52.71
63883;BME280;50047;50.596;30.466;2022-07-15T10:05:52;98872.19;;;26.36;52.71
63883;BME280;50047;50.596;30.466;2022-07-15T10:08:21;98873.05;;;26.21;52.29
63883;BME280;50047;50.596;30.466;2022-07-15T10:10:49;98870.07;;;25.68;53.20
63883;BME280;50047;50.596;30.466;2022-07-15T10:21:30;98891.27;;;24.57;54.44
63883;BME280;50047;50.596;30.466;2022-07-15T10:29:11;98897.10;;;25.26;53.98
63883;BME280;50047;50.596;30.466;2022-07-15T10:31:39;98907.77;;;25.25;53.82
63883;BME280;50047;50.596;30.466;2022-07-15T10:39:16;98919.41;;;25.18;52.70
63883;BME280;50047;50.596;30.466;2022-07-15T10:45:06;98927.83;;;25.01;53.41
63883;BME280;50047;50.596;30.466;2022-07-15T10:47:34;98941.88;;;25.55;53.27
63883;BME280;50047;50.596;30.466;2022-07-15T10:50:42;98938.73;;;25.90;52.03
63883;BME280;50047;50.596;30.466;2022-07-15T10:53:15;98932.53;;;25.96;51.24
63883;BME280;50047;50.596;30.466;2022-07-15T10:55:43;98937.20;;;25.64;51.51
63883;BME280;50047;50.596;30.466;2022-07-15T10:58:11;98938.86;;;25.39;51.72
63883;BME280;50047;50.596;30.466;2022-07-15T11:00:39;98945.71;;;24.92;52.51
63883;BME280;50047;50.596;30.466;2022-07-15T11:03:10;98961.38;;;24.61;52.69
63883;BME280;50047;50.596;30.466;2022-07-15T11:13:43;98943.86;;;25.39;51.62
63883;BME280;50047;50.596;30.466;2022-07-15T11:16:15;98943.27;;;25.49;51.34
63883;BME280;50047;50.596;30.466;2022-07-15T11:18:53;98938.55;;;25.42;51.12
63883;BME280;50047;50.596;30.466;2022-07-15T11:21:21;98936.58;;;25.34;51.16
63883;BME280;50047;50.596;30.466;2022-07-15T11:23:50;98934.54;;;25.17;51.02
63883;BME280;50047;50.596;30.466;2022-07-15T11:26:19;98930.59;;;24.89;51.74
63883;BME280;50047;50.596;30.466;2022-07-15T11:28:55;98935.60;;;24.64;51.82
63883;BME280;50047;50.596;30.466;2022-07-15T11:31:25;98942.25;;;24.48;52.88
63883;BME280;50047;50.596;30.466;2022-07-15T11:33:53;98957.03;;;24.89;53.33
63883;BME280;50047;50.596;30.466;2022-07-15T11:36:22;98970.83;;;25.44;52.36
63883;BME280;50047;50.596;30.466;2022-07-15T11:38:51;98969.17;;;25.84;51.35
63883;BME280;50047;50.596;30.466;2022-07-15T11:41:19;98968.23;;;26.02;50.23
63883;BME280;50047;50.596;30.466;2022-07-15T11:44:10;98975.57;;;26.12;49.56
63883;BME280;50047;50.596;30.466;2022-07-15T11:46:58;98977.60;;;26.25;49.42
63883;BME280;50047;50.596;30.466;2022-07-15T11:49:35;98985.88;;;26.06;49.31
63883;BME280;50047;50.596;30.466;2022-07-15T11:52:09;98984.55;;;25.97;49.51
63883;BME280;50047;50.596;30.466;2022-07-15T11:54:38;98988.56;;;26.07;49.24
63883;BME280;50047;50.596;30.466;2022-07-15T11:57:08;98985.98;;;26.25;49.05
63883;BME280;50047;50.596;30.466;2022-07-15T11:59:36;98990.23;;;26.29;48.46
63883;BME280;50047;50.596;30.466;2022-07-15T12:02:10;98992.84;;;26.20;48.80
63883;BME280;50047;50.596;30.466;2022-07-15T12:04:40;98991.10;;;26.23;49.30
63883;BME280;50047;50.596;30.466;2022-07-15T12:07:09;98994.67;;;26.87;48.71
63883;BME280;50047;50.596;30.466;2022-07-15T12:09:41;99005.23;;;27.55;46.92
63883;BME280;50047;50.596;30.466;2022-07-15T12:12:09;98999.88;;;27.73;46.43
63883;BME280;50047;50.596;30.466;2022-07-15T12:14:36;99003.35;;;27.58;45.89
63883;BME280;50047;50.596;30.466;2022-07-15T12:17:04;99007.13;;;27.21;46.06
63883;BME280;50047;50.596;30.466;2022-07-15T12:19:33;99007.58;;;26.99;46.28
63883;BME280;50047;50.596;30.466;2022-07-15T12:22:08;99015.48;;;26.69;46.97
63883;BME280;50047;50.596;30.466;2022-07-15T12:24:41;99018.35;;;26.44;47.30
63883;BME280;50047;50.596;30.466;2022-07-15T12:27:11;99012.88;;;26.32;47.77
63883;BME280;50047;50.596;30.466;2022-07-15T12:29:41;99013.19;;;26.29;47.97
63883;BME280;50047;50.596;30.466;2022-07-15T12:32:29;99016.67;;;26.15;48.25
63883;BME280;50047;50.596;30.466;2022-07-15T12:34:57;99011.95;;;26.14;48.09
63883;BME280;50047;50.596;30.466;2022-07-15T12:42:38;99010.46;;;26.09;48.22
63883;BME280;50047;50.596;30.466;2022-07-15T12:48:11;99011.89;;;26.01;48.28
63883;BME280;50047;50.596;30.466;2022-07-15T12:53:24;99022.84;;;26.03;48.15
63883;BME280;50047;50.596;30.466;2022-07-15T12:55:53;99018.20;;;25.94;48.31
63883;BME280;50047;50.596;30.466;2022-07-15T12:58:26;99020.88;;;25.82;48.50
63883;BME280;50047;50.596;30.466;2022-07-15T13:01:08;99022.54;;;25.69;48.93
63883;BME280;50047;50.596;30.466;2022-07-15T13:03:36;99019.11;;;25.58;49.41
63883;BME280;50047;50.596;30.466;2022-07-15T13:06:04;99021.55;;;25.70;49.01
63883;BME280;50047;50.596;30.466;2022-07-15T13:08:34;99016.17;;;25.88;48.83
63883;BME280;50047;50.596;30.466;2022-07-15T13:11:04;99016.65;;;26.35;48.60
63883;BME280;50047;50.596;30.466;2022-07-15T13:13:35;99023.10;;;26.79;48.13
63883;BME280;50047;50.596;30.466;2022-07-15T13:16:03;99024.54;;;26.82;47.32
63883;BME280;50047;50.596;30.466;2022-07-15T13:18:33;99026.52;;;26.59;47.37
63883;BME280;50047;50.596;30.466;2022-07-15T13:21:02;99027.08;;;26.46;47.29
63883;BME280;50047;50.596;30.466;2022-07-15T13:23:30;99024.02;;;26.33;47.57
63883;BME280;50047;50.596;30.466;2022-07-15T13:25:58;99021.86;;;26.28;47.45
63883;BME280;50047;50.596;30.466;2022-07-15T13:28:26;99022.62;;;26.18;47.76
63883;BME280;50047;50.596;30.466;2022-07-15T13:30:53;99026.84;;;26.23;47.80
63883;BME280;50047;50.596;30.466;2022-07-15T13:33:21;99018.44;;;26.26;47.66
63883;BME280;50047;50.596;30.466;2022-07-15T13:35:49;99014.87;;;26.30;47.87
63883;BME280;50047;50.596;30.466;2022-07-15T13:38:16;99003.23;;;26.29;47.70
63883;BME280;50047;50.596;30.466;2022-07-15T13:40:44;99002.36;;;26.41;47.29
63883;BME280;50047;50.596;30.466;2022-07-15T13:43:11;98997.48;;;26.37;47.32
63883;BME280;50047;50.596;30.466;2022-07-15T13:45:39;98991.52;;;26.40;47.37
63883;BME280;50047;50.596;30.466;2022-07-15T13:48:13;98993.38;;;26.45;47.06
63883;BME280;50047;50.596;30.466;2022-07-15T13:50:41;98995.16;;;26.34;47.15
63883;BME280;50047;50.596;30.466;2022-07-15T13:53:27;98992.73;;;26.19;47.83
63883;BME280;50047;50.596;30.466;2022-07-15T13:55:54;98991.02;;;26.16;48.33